Предлагаем Вашему вниманию английскую версию страницы: AUTOTAF.ME 29418 - aviation weather forecast Severnoe

AUTOTAF 29418 - авиапрогноз Северное

Сегодня рассвет 01:00 UTC, восход солнца 01:39 UTC,
местный полдень 06:30 UTC, заход солнца 11:22 UTC,
наступление темноты 12:01 UTC.

Краткий прогноз 29418 на 9 часов

AUTOTAF.ME 29418 242000Z 2421/2506 18003MPS CAVOK    
  BECMG 2422/2500 BKN015  
  FM250300 17009G15MPS 9999 BKN022

Детальный прогноз 29418 на 24 часа

AUTOTAF.ME 29418 242000Z 2421/2521 18003MPS 9999 OVC175 TX03/2521Z TNM05/2421Z  
  BECMG 2422/2500 BKN015  
  FM250300 17009G15MPS 9999 BKN022  
  BECMG 2507/2509 BKN005  
  FM251200 16006G13MPS 2000 SN BR OVC004 
  FM251500 17004MPS 3000 -SN BR OVC003 
  FM251800 17003MPS 1000 RA BR OVC001 
  BECMG 2519/2521 22003MPS

Подробный табличный прогноз

Время (UTC) miniAUTOTAF на 3 ч WX FZLVL
M AGL
ICE TURB Т
(°С)
Тd
(°С)
f(%) QNH
(гПа)
WIND/T
18 VRB02MPS 9999 BKN016 SFC MOD FL40/FL50 MOD SFC/FL30 -5 -9 70 1027 ...
21 18003MPS 9999 OVC175 SFC MOD SFC/FL20 -5 -9 71 1026 ...
25.10.2020
00 17005G11MPS 9999 BKN015 SFC MOD FL20/FL30 MOD SFC/FL20 -4 -10 65 1024 ...
03 17009G15MPS 9999 BKN022 SFC MOD FL110/FL120 MOD SFC/FL20 -3 -10 58 1023 ...
06 17009G15MPS 9999 BKN021 SFC FBL FL40/FL170 MOD SFC/FL30 -1 -9 55 1020 ...
09 17009G15MPS 9999 BKN005 SFC MOD FL10/FL20 MOD SFC/FL20 -1 -3 88 1017 ...
12 16006G13MPS 2000 SN BR OVC004 SN BR SFC FBL FL20/FL170 MOD FL40/FL50 -1 -3 91 1015 ...
15 17004MPS 3000 -SN BR OVC003 -SN BR SFC MOD FL70/FL80 -0 -1 92 1012 ...
18 17003MPS 1000 RA BR OVC001 RA BR 630 MOD FL150/FL160 2 1 98 1011 ...
21 22003MPS 1000 RA BR OVC001 RA BR 810 MOD FL120/FL130 3 2 97 1010 ...
26.10.2020
00 23004MPS 2000 RA BR OVC002 RA BR 720 MOD FL40/FL90 3 2 96 1010 ...
03 21003MPS 1000 BR OVC001 BR 810 MOD FL50/FL90 3 2 98 1011 ...
06 VRB02MPS 3000 BR OVC002 BR 900 MOD FL40/FL50 4 4 95 1011 ...
09 VRB02MPS 0500 RA FG VV002 RA FG 1050 MOD FL150/FL160 3 3 99 1010 ...
12 15003MPS 2000 RA BR OVC001 RA BR 1350 FBL FL70/FL190 4 3 98 1008 ...
15 15004MPS 3000 -RA BR OVC001 -RA BR 1350 FBL FL70/FL190 4 3 96 1006 ...


Широта 56.3°, долгота 78.3°, высота 126 м абс.
Средняя высота рельефа местности 127 м абс.
Прогнозы обновляются четыре раза в сутки: в 02, 08, 14, 20 ч всемирного времени.


Выбрать прогноз по другой модели Северное
Онлайн-сводка гроз по Северное (для РФ и ближнего зарубежья)
Карта фактических гроз в окрестностях Северное
Динамические прогностические карты (ventusky.com)
Прогностическая карта высоты нижней границы облаков по Северное (windy.com)
Выбрать другой город

Прогноз предназначен для личного научно-познавательного использования частными лицами
и не предназначен для принятия важных решений и выполнения реальных полётов воздушных судов

При копировании или ином использовании любых материалов данного сайта ссылка на © meteocenter.asia обязательна.

1.09/1.5